createdAt,value
2019-01-16T00:00:57.206Z,1010.05
2019-01-16T00:01:57.233Z,1010.07
2019-01-16T00:02:57.228Z,1010.04
2019-01-16T00:03:57.183Z,1010.06
2019-01-16T00:04:57.369Z,1010.04
2019-01-16T00:05:57.162Z,1010.03
2019-01-16T00:06:57.149Z,1009.99
2019-01-16T00:07:57.132Z,1009.99
2019-01-16T00:08:57.162Z,1009.96
2019-01-16T00:09:57.112Z,1009.92
2019-01-16T00:10:57.187Z,1009.94
2019-01-16T00:11:57.113Z,1009.97
2019-01-16T00:12:57.079Z,1009.98
2019-01-16T00:13:57.098Z,1009.92
2019-01-16T00:14:57.153Z,1009.96
2019-01-16T00:15:57.040Z,1009.91
2019-01-16T00:16:57.148Z,1009.87
2019-01-16T00:17:57.022Z,1009.93
2019-01-16T00:18:57.047Z,1009.95
2019-01-16T00:19:57.134Z,1009.90
2019-01-16T00:20:57.000Z,1009.88
2019-01-16T00:21:56.999Z,1009.86
2019-01-16T00:22:56.974Z,1009.88
2019-01-16T00:23:57.026Z,1009.91
2019-01-16T00:24:56.947Z,1009.89
2019-01-16T00:25:56.940Z,1009.85
2019-01-16T00:26:56.941Z,1009.85
2019-01-16T00:27:56.927Z,1009.78
2019-01-16T00:28:56.912Z,1009.78
2019-01-16T00:29:57.024Z,1009.78
2019-01-16T00:30:56.887Z,1009.78
2019-01-16T00:31:57.056Z,1009.78
2019-01-16T00:32:56.861Z,1009.80
2019-01-16T00:33:56.860Z,1009.74
2019-01-16T00:34:56.862Z,1009.76
2019-01-16T00:35:56.874Z,1009.76
2019-01-16T00:36:56.838Z,1009.75
2019-01-16T00:37:56.840Z,1009.74
2019-01-16T00:38:56.867Z,1009.73
2019-01-16T00:39:56.943Z,1009.73
2019-01-16T00:40:56.864Z,1009.70
2019-01-16T00:41:56.838Z,1009.72
2019-01-16T00:42:57.039Z,1009.76
2019-01-16T00:43:56.746Z,1009.71
2019-01-16T00:44:56.818Z,1009.68
2019-01-16T00:45:56.726Z,1009.70
2019-01-16T00:46:56.714Z,1009.68
2019-01-16T00:47:56.719Z,1009.63
2019-01-16T00:48:56.696Z,1009.65
2019-01-16T00:49:56.711Z,1009.64
2019-01-16T00:50:56.749Z,1009.66
2019-01-16T00:51:56.867Z,1009.62
2019-01-16T00:52:56.648Z,1009.62
2019-01-16T00:53:56.654Z,1009.61
2019-01-16T00:54:56.651Z,1009.64
2019-01-16T00:55:56.620Z,1009.64
2019-01-16T00:56:56.752Z,1009.58
2019-01-16T00:57:56.606Z,1009.57
2019-01-16T00:58:56.601Z,1009.63
2019-01-16T00:59:56.613Z,1009.61
2019-01-16T01:00:56.692Z,1009.61
2019-01-16T01:01:56.595Z,1009.61
2019-01-16T01:02:56.544Z,1009.60
2019-01-16T01:03:56.535Z,1009.60
2019-01-16T01:04:56.534Z,1009.55
2019-01-16T01:05:56.555Z,1009.54
2019-01-16T01:06:56.544Z,1009.50
2019-01-16T01:07:56.643Z,1009.51
2019-01-16T01:09:00.319Z,1009.54
2019-01-16T01:09:56.468Z,1009.53
2019-01-16T01:10:56.530Z,1009.50
2019-01-16T01:11:56.448Z,1009.51
2019-01-16T01:12:56.561Z,1009.51
2019-01-16T01:13:56.437Z,1009.47
2019-01-16T01:14:56.424Z,1009.52
2019-01-16T01:15:56.475Z,1009.51
2019-01-16T01:16:56.564Z,1009.50
2019-01-16T01:17:56.387Z,1009.50
2019-01-16T01:18:56.387Z,1009.48
2019-01-16T01:19:56.368Z,1009.47
2019-01-16T01:20:56.350Z,1009.48
2019-01-16T01:21:56.603Z,1009.44
2019-01-16T01:22:56.429Z,1009.44
2019-01-16T01:23:56.315Z,1009.45
2019-01-16T01:24:56.446Z,1009.45
2019-01-16T01:25:56.292Z,1009.45
2019-01-16T01:26:56.321Z,1009.48
2019-01-16T01:27:56.400Z,1009.47
2019-01-16T01:28:56.264Z,1009.48
2019-01-16T01:29:56.350Z,1009.50
2019-01-16T01:30:56.241Z,1009.50
2019-01-16T01:31:56.255Z,1009.53
2019-01-16T01:32:56.252Z,1009.52
2019-01-16T01:33:56.222Z,1009.52
2019-01-16T01:34:56.253Z,1009.51
2019-01-16T01:35:56.192Z,1009.49
2019-01-16T01:36:56.200Z,1009.46
2019-01-16T01:37:56.164Z,1009.49
2019-01-16T01:38:56.319Z,1009.52
2019-01-16T01:39:56.143Z,1009.52
2019-01-16T01:40:56.140Z,1009.55
2019-01-16T01:41:56.222Z,1009.53
2019-01-16T01:42:56.135Z,1009.56
2019-01-16T01:43:56.142Z,1009.56
2019-01-16T01:44:56.093Z,1009.56
2019-01-16T01:45:56.080Z,1009.50
2019-01-16T01:46:56.074Z,1009.50
2019-01-16T01:47:56.087Z,1009.47
2019-01-16T01:48:56.128Z,1009.51
2019-01-16T01:49:56.043Z,1009.47
2019-01-16T01:50:56.071Z,1009.51
2019-01-16T01:51:56.053Z,1009.49
2019-01-16T01:52:56.030Z,1009.47
2019-01-16T01:53:56.075Z,1009.47
2019-01-16T01:54:55.986Z,1009.47
2019-01-16T01:55:55.974Z,1009.48
2019-01-16T01:56:55.965Z,1009.48
2019-01-16T01:57:56.038Z,1009.50
2019-01-16T01:58:56.032Z,1009.44
2019-01-16T01:59:55.982Z,1009.45
2019-01-16T02:00:55.918Z,1009.39
2019-01-16T02:01:55.916Z,1009.42
2019-01-16T02:02:56.010Z,1009.42
2019-01-16T02:03:55.901Z,1009.44
2019-01-16T02:04:55.889Z,1009.46
2019-01-16T02:05:55.903Z,1009.44
2019-01-16T02:06:55.943Z,1009.43
2019-01-16T02:07:55.857Z,1009.41
2019-01-16T02:08:55.879Z,1009.41
2019-01-16T02:09:55.824Z,1009.39
2019-01-16T02:10:55.864Z,1009.37
2019-01-16T02:11:55.970Z,1009.36
2019-01-16T02:12:55.834Z,1009.42
2019-01-16T02:13:55.807Z,1009.33
2019-01-16T02:14:56.023Z,1009.36
2019-01-16T02:15:55.764Z,1009.36
2019-01-16T02:16:55.988Z,1009.31
2019-01-16T02:17:55.756Z,1009.29
2019-01-16T02:18:55.771Z,1009.31
2019-01-16T02:19:55.719Z,1009.30
2019-01-16T02:20:55.761Z,1009.28
2019-01-16T02:21:55.718Z,1009.27
2019-01-16T02:22:55.710Z,1009.27
2019-01-16T02:23:55.730Z,1009.29
2019-01-16T02:24:55.709Z,1009.25
2019-01-16T02:25:55.654Z,1009.25
2019-01-16T02:26:55.647Z,1009.23
2019-01-16T02:27:56.846Z,1009.22
2019-01-16T02:28:55.850Z,1009.28
2019-01-16T02:29:55.636Z,1009.25
2019-01-16T02:30:55.674Z,1009.27
2019-01-16T02:31:55.602Z,1009.25
2019-01-16T02:32:55.612Z,1009.28
2019-01-16T02:33:55.567Z,1009.29
2019-01-16T02:34:55.652Z,1009.27
2019-01-16T02:35:55.553Z,1009.34
2019-01-16T02:36:55.542Z,1009.27
2019-01-16T02:37:55.579Z,1009.23
2019-01-16T02:38:55.534Z,1009.23
2019-01-16T02:39:55.507Z,1009.21
2019-01-16T02:40:55.518Z,1009.24
2019-01-16T02:41:55.490Z,1009.19
2019-01-16T02:42:55.477Z,1009.20
2019-01-16T02:43:55.650Z,1009.16
2019-01-16T02:44:55.540Z,1009.16
2019-01-16T02:45:55.463Z,1009.10
2019-01-16T02:46:55.443Z,1009.12
2019-01-16T02:47:55.419Z,1009.07
2019-01-16T02:48:56.251Z,1009.10
2019-01-16T02:49:55.399Z,1009.09
2019-01-16T02:50:55.544Z,1009.04
2019-01-16T02:51:55.382Z,1009.06
2019-01-16T02:52:55.370Z,1009.08
2019-01-16T02:53:55.530Z,1009.07
2019-01-16T02:54:55.344Z,1009.09
2019-01-16T02:55:55.367Z,1009.06
2019-01-16T02:56:55.322Z,1008.98
2019-01-16T02:57:55.452Z,1008.98
2019-01-16T02:58:55.318Z,1009.03
2019-01-16T02:59:55.477Z,1008.91
2019-01-16T03:00:55.276Z,1008.99
2019-01-16T03:01:55.303Z,1008.97
2019-01-16T03:02:55.319Z,1008.92
2019-01-16T03:03:55.282Z,1008.98
2019-01-16T03:04:55.242Z,1008.90
2019-01-16T03:05:55.245Z,1008.87
2019-01-16T03:06:55.505Z,1008.82
2019-01-16T03:07:55.203Z,1008.88
2019-01-16T03:08:55.200Z,1008.88
2019-01-16T03:09:55.239Z,1008.84
2019-01-16T03:10:55.179Z,1008.84
2019-01-16T03:11:55.200Z,1008.85
2019-01-16T03:12:55.155Z,1008.83
2019-01-16T03:13:55.218Z,1008.81
2019-01-16T03:14:55.137Z,1008.75
2019-01-16T03:15:55.119Z,1008.77
2019-01-16T03:16:55.370Z,1008.77
2019-01-16T03:17:55.169Z,1008.73
2019-01-16T03:18:55.109Z,1008.73
2019-01-16T03:19:55.074Z,1008.70
2019-01-16T03:20:55.070Z,1008.73
2019-01-16T03:21:55.054Z,1008.75
2019-01-16T03:22:55.219Z,1008.74
2019-01-16T03:23:55.073Z,1008.69
2019-01-16T03:24:55.025Z,1008.66
2019-01-16T03:25:55.040Z,1008.70
2019-01-16T03:26:55.018Z,1008.70
2019-01-16T03:27:55.223Z,1008.68
2019-01-16T03:28:55.115Z,1008.67
2019-01-16T03:29:54.967Z,1008.72
2019-01-16T03:30:54.984Z,1008.64
2019-01-16T03:31:54.953Z,1008.63
2019-01-16T03:32:55.116Z,1008.67
2019-01-16T03:33:54.933Z,1008.68
2019-01-16T03:34:55.004Z,1008.63
2019-01-16T03:35:55.101Z,1008.62
2019-01-16T03:36:54.893Z,1008.69
2019-01-16T03:37:54.918Z,1008.63
2019-01-16T03:38:54.954Z,1008.61
2019-01-16T03:39:54.968Z,1008.51
2019-01-16T03:40:54.859Z,1008.55
2019-01-16T03:41:54.931Z,1008.54
2019-01-16T03:42:54.891Z,1008.57
2019-01-16T03:43:54.852Z,1008.58
2019-01-16T03:44:54.825Z,1008.59
2019-01-16T03:45:54.984Z,1008.57
2019-01-16T03:46:54.796Z,1008.60
2019-01-16T03:47:54.814Z,1008.60
2019-01-16T03:48:54.941Z,1008.55
2019-01-16T03:49:54.753Z,1008.63
2019-01-16T03:50:54.812Z,1008.54
2019-01-16T03:51:54.750Z,1008.53
2019-01-16T03:52:54.732Z,1008.47
2019-01-16T03:53:54.905Z,1008.50
2019-01-16T03:54:54.700Z,1008.49
2019-01-16T03:55:54.817Z,1008.48
2019-01-16T03:56:54.692Z,1008.45
2019-01-16T03:57:54.689Z,1008.40
2019-01-16T03:58:54.761Z,1008.38
2019-01-16T03:59:54.803Z,1008.41
2019-01-16T04:00:54.682Z,1008.40
2019-01-16T04:01:54.624Z,1008.39
2019-01-16T04:02:54.678Z,1008.38
2019-01-16T04:03:54.640Z,1008.33
2019-01-16T04:04:54.711Z,1008.35
2019-01-16T04:05:54.591Z,1008.31
2019-01-16T04:06:54.615Z,1008.29
2019-01-16T04:07:54.568Z,1008.29
2019-01-16T04:08:54.608Z,1008.30
2019-01-16T04:09:54.649Z,1008.27
2019-01-16T04:10:54.543Z,1008.26
2019-01-16T04:11:54.672Z,1008.30
2019-01-16T04:12:54.509Z,1008.30
2019-01-16T04:13:54.618Z,1008.28
2019-01-16T04:14:54.533Z,1008.23
2019-01-16T04:15:54.514Z,1008.23
2019-01-16T04:16:54.464Z,1008.22
2019-01-16T04:17:54.453Z,1008.17
2019-01-16T04:18:54.516Z,1008.17
2019-01-16T04:19:54.460Z,1008.11
2019-01-16T04:20:54.439Z,1008.10
2019-01-16T04:21:54.678Z,1008.08
2019-01-16T04:22:54.425Z,1008.16
2019-01-16T04:23:54.501Z,1008.07
2019-01-16T04:24:54.490Z,1008.12
2019-01-16T04:25:54.428Z,1008.05
2019-01-16T04:26:54.358Z,1008.09
2019-01-16T04:27:54.357Z,1008.08
2019-01-16T04:28:54.338Z,1008.06
2019-01-16T04:29:54.367Z,1008.08
2019-01-16T04:30:54.339Z,1008.04
2019-01-16T04:31:54.304Z,1008.03
2019-01-16T04:32:54.293Z,1008.03
2019-01-16T04:33:54.352Z,1007.99
2019-01-16T04:34:54.300Z,1007.98
2019-01-16T04:35:54.269Z,1007.98
2019-01-16T04:36:54.332Z,1007.97
2019-01-16T04:37:54.263Z,1007.97
2019-01-16T04:38:54.237Z,1007.96
2019-01-16T04:39:54.244Z,1007.93
2019-01-16T04:40:54.392Z,1007.95
2019-01-16T04:41:54.254Z,1007.96
2019-01-16T04:42:54.200Z,1007.96
2019-01-16T04:43:54.231Z,1007.95
2019-01-16T04:44:54.174Z,1007.90
2019-01-16T04:45:54.230Z,1007.90
2019-01-16T04:46:54.149Z,1007.88
2019-01-16T04:47:54.197Z,1007.91
2019-01-16T04:48:54.129Z,1007.87
2019-01-16T04:49:54.276Z,1007.89
2019-01-16T04:50:54.105Z,1007.85
2019-01-16T04:51:54.268Z,1007.93
2019-01-16T04:52:54.083Z,1007.95
2019-01-16T04:53:54.068Z,1007.94
2019-01-16T04:54:54.065Z,1007.94
2019-01-16T04:55:54.133Z,1007.89
2019-01-16T04:56:54.203Z,1007.88
2019-01-16T04:57:54.028Z,1007.84
2019-01-16T04:58:54.024Z,1007.86
2019-01-16T04:59:54.053Z,1007.85
2019-01-16T05:00:54.009Z,1007.83
2019-01-16T05:01:54.049Z,1007.85
2019-01-16T05:02:53.977Z,1007.82
2019-01-16T05:03:54.020Z,1007.78
2019-01-16T05:04:54.422Z,1007.78
2019-01-16T05:05:54.091Z,1007.81
2019-01-16T05:06:53.959Z,1007.84
2019-01-16T05:07:53.948Z,1007.79
2019-01-16T05:08:53.973Z,1007.82
2019-01-16T05:09:53.904Z,1007.79
2019-01-16T05:10:53.909Z,1007.76
2019-01-16T05:11:53.879Z,1007.77
2019-01-16T05:12:53.896Z,1007.74
2019-01-16T05:13:53.859Z,1007.74
2019-01-16T05:14:53.888Z,1007.69
2019-01-16T05:15:53.857Z,1007.72
2019-01-16T05:16:53.832Z,1007.74
2019-01-16T05:17:53.848Z,1007.71
2019-01-16T05:18:53.930Z,1007.68
2019-01-16T05:19:53.795Z,1007.67
2019-01-16T05:20:53.869Z,1007.69
2019-01-16T05:21:53.782Z,1007.65
2019-01-16T05:22:53.795Z,1007.70
2019-01-16T05:23:53.753Z,1007.73
2019-01-16T05:24:53.817Z,1007.69
2019-01-16T05:25:53.736Z,1007.67
2019-01-16T05:26:53.729Z,1007.66
2019-01-16T05:27:53.916Z,1007.63
2019-01-16T05:28:53.748Z,1007.56
2019-01-16T05:29:53.696Z,1007.56
2019-01-16T05:30:53.680Z,1007.59
2019-01-16T05:31:53.669Z,1007.54
2019-01-16T05:32:53.694Z,1007.55
2019-01-16T05:33:53.718Z,1007.45
2019-01-16T05:34:53.647Z,1007.51
2019-01-16T05:35:53.793Z,1007.48
2019-01-16T05:36:53.608Z,1007.53
2019-01-16T05:37:53.602Z,1007.51
2019-01-16T05:38:53.639Z,1007.53
2019-01-16T05:39:53.578Z,1007.52
2019-01-16T05:40:53.567Z,1007.54
2019-01-16T05:41:53.562Z,1007.54
2019-01-16T05:42:53.666Z,1007.53
2019-01-16T05:43:53.582Z,1007.47
2019-01-16T05:44:53.601Z,1007.49
2019-01-16T05:45:53.523Z,1007.48
2019-01-16T05:46:53.513Z,1007.47
2019-01-16T05:47:53.577Z,1007.42
2019-01-16T05:48:53.597Z,1007.41
2019-01-16T05:49:53.511Z,1007.43
2019-01-16T05:50:53.484Z,1007.39
2019-01-16T05:51:53.588Z,1007.40
2019-01-16T05:52:53.455Z,1007.41
2019-01-16T05:53:53.444Z,1007.41
2019-01-16T05:54:53.446Z,1007.37
2019-01-16T05:55:53.477Z,1007.40
2019-01-16T05:56:53.419Z,1007.41
2019-01-16T05:57:53.414Z,1007.42
2019-01-16T05:58:53.377Z,1007.42
2019-01-16T05:59:53.483Z,1007.41
2019-01-16T06:00:53.353Z,1007.43
2019-01-16T06:01:53.342Z,1007.47
2019-01-16T06:02:53.422Z,1007.56
2019-01-16T06:03:53.338Z,1007.52
2019-01-16T06:04:53.343Z,1007.46
2019-01-16T06:05:53.320Z,1007.49
2019-01-16T06:06:53.349Z,1007.48
2019-01-16T06:07:53.290Z,1007.43
2019-01-16T06:08:53.313Z,1007.40
2019-01-16T06:09:53.303Z,1007.41
2019-01-16T06:10:53.246Z,1007.42
2019-01-16T06:11:53.296Z,1007.47
2019-01-16T06:12:53.227Z,1007.48
2019-01-16T06:13:53.228Z,1007.42
2019-01-16T06:14:53.242Z,1007.51
2019-01-16T06:15:53.308Z,1007.44
2019-01-16T06:16:53.185Z,1007.42
2019-01-16T06:17:53.196Z,1007.40
2019-01-16T06:18:53.231Z,1007.38
2019-01-16T06:19:54.155Z,1007.37
2019-01-16T06:20:53.223Z,1007.44
2019-01-16T06:21:53.140Z,1007.45
2019-01-16T06:22:53.117Z,1007.47
2019-01-16T06:23:53.109Z,1007.41
2019-01-16T06:24:53.127Z,1007.50
2019-01-16T06:25:53.168Z,1007.46
2019-01-16T06:26:53.073Z,1007.46
2019-01-16T06:27:53.080Z,1007.47
2019-01-16T06:28:53.133Z,1007.45
2019-01-16T06:29:53.117Z,1007.45
2019-01-16T06:30:53.114Z,1007.47
2019-01-16T06:31:53.998Z,1007.48
2019-01-16T06:32:53.038Z,1007.46
2019-01-16T06:33:53.062Z,1007.35
2019-01-16T06:34:52.995Z,1007.40
2019-01-16T06:35:53.087Z,1007.37
2019-01-16T06:36:53.037Z,1007.34
2019-01-16T06:37:52.984Z,1007.27
2019-01-16T06:38:52.946Z,1007.34
2019-01-16T06:39:53.028Z,1007.38
2019-01-16T06:40:53.046Z,1007.40
2019-01-16T06:41:52.974Z,1007.39
2019-01-16T06:42:52.923Z,1007.27
2019-01-16T06:43:52.891Z,1007.27
2019-01-16T06:44:53.013Z,1007.33
2019-01-16T06:45:52.877Z,1007.31
2019-01-16T06:46:52.900Z,1007.28
2019-01-16T06:47:52.853Z,1007.31
2019-01-16T06:48:52.984Z,1007.34
2019-01-16T06:49:52.984Z,1007.33
2019-01-16T06:50:52.874Z,1007.35
2019-01-16T06:51:52.833Z,1007.30
2019-01-16T06:52:52.796Z,1007.33
2019-01-16T06:53:52.786Z,1007.33
2019-01-16T06:54:52.777Z,1007.30
2019-01-16T06:55:52.840Z,1007.25
2019-01-16T06:56:52.786Z,1007.28
2019-01-16T06:57:52.758Z,1007.25
2019-01-16T06:58:52.744Z,1007.28
2019-01-16T06:59:52.768Z,1007.28
2019-01-16T07:00:52.731Z,1007.33
2019-01-16T07:01:52.789Z,1007.33
2019-01-16T07:02:52.695Z,1007.31
2019-01-16T07:03:52.689Z,1007.31
2019-01-16T07:04:52.676Z,1007.28
2019-01-16T07:05:52.724Z,1007.29
2019-01-16T07:06:52.692Z,1007.22
2019-01-16T07:07:52.726Z,1007.26
2019-01-16T07:08:52.634Z,1007.18
2019-01-16T07:09:52.882Z,1007.18
2019-01-16T07:10:52.611Z,1007.19
2019-01-16T07:11:52.619Z,1007.21
2019-01-16T07:12:52.605Z,1007.27
2019-01-16T07:13:52.570Z,1007.25
2019-01-16T07:14:52.632Z,1007.30
2019-01-16T07:15:52.556Z,1007.32
2019-01-16T07:16:52.578Z,1007.29
2019-01-16T07:17:52.725Z,1007.32
2019-01-16T07:18:52.613Z,1007.26
2019-01-16T07:19:52.588Z,1007.30
2019-01-16T07:20:52.497Z,1007.27
2019-01-16T07:21:52.498Z,1007.24
2019-01-16T07:22:52.756Z,1007.21
2019-01-16T07:23:52.473Z,1007.20
2019-01-16T07:24:52.467Z,1007.19
2019-01-16T07:25:52.581Z,1007.17
2019-01-16T07:26:52.434Z,1007.18
2019-01-16T07:27:52.421Z,1007.16
2019-01-16T07:28:52.562Z,1007.16
2019-01-16T07:29:52.403Z,1007.20
2019-01-16T07:30:52.422Z,1007.24
2019-01-16T07:31:52.447Z,1007.24
2019-01-16T07:32:52.371Z,1007.22
2019-01-16T07:33:52.384Z,1007.23
2019-01-16T07:34:52.381Z,1007.22
2019-01-16T07:35:52.346Z,1007.24
2019-01-16T07:36:52.348Z,1007.14
2019-01-16T07:37:52.318Z,1007.18
2019-01-16T07:38:52.367Z,1007.17
2019-01-16T07:39:52.335Z,1007.21
2019-01-16T07:40:52.288Z,1007.17
2019-01-16T07:41:52.285Z,1007.17
2019-01-16T07:42:52.289Z,1007.20
2019-01-16T07:43:52.365Z,1007.23
2019-01-16T07:44:52.326Z,1007.23
2019-01-16T07:45:52.276Z,1007.19
2019-01-16T07:46:52.218Z,1007.23
2019-01-16T07:47:52.271Z,1007.23
2019-01-16T07:48:52.229Z,1007.25
2019-01-16T07:49:52.210Z,1007.22
2019-01-16T07:50:52.184Z,1007.21
2019-01-16T07:51:52.258Z,1007.22
2019-01-16T07:52:52.156Z,1007.22
2019-01-16T07:53:52.234Z,1007.23
2019-01-16T07:54:52.180Z,1007.21
2019-01-16T07:55:52.210Z,1007.17
2019-01-16T07:56:52.115Z,1007.13
2019-01-16T07:57:52.103Z,1007.11
2019-01-16T07:58:52.100Z,1007.12
2019-01-16T07:59:52.088Z,1007.05
2019-01-16T08:00:52.153Z,1007.08
2019-01-16T08:01:52.070Z,1007.11
2019-01-16T08:02:52.065Z,1007.08
2019-01-16T08:03:52.153Z,1007.04
2019-01-16T08:04:52.073Z,1007.07
2019-01-16T08:05:52.023Z,1007.09
2019-01-16T08:06:52.072Z,1007.08
2019-01-16T08:07:51.996Z,1007.07
2019-01-16T08:08:51.984Z,1007.08
2019-01-16T08:09:52.038Z,1007.09
2019-01-16T08:10:51.973Z,1007.07
2019-01-16T08:11:51.980Z,1007.04
2019-01-16T08:12:51.976Z,1007.04
2019-01-16T08:13:51.979Z,1006.94
2019-01-16T08:14:51.956Z,1006.96
2019-01-16T08:15:51.923Z,1006.98
2019-01-16T08:16:51.926Z,1007.00
2019-01-16T08:17:52.060Z,1006.97
2019-01-16T08:18:51.968Z,1007.02
2019-01-16T08:19:51.869Z,1007.08
2019-01-16T08:20:51.868Z,1007.09
2019-01-16T08:21:52.030Z,1007.06
2019-01-16T08:22:51.844Z,1007.09
2019-01-16T08:23:51.836Z,1007.11
2019-01-16T08:24:51.923Z,1007.03
2019-01-16T08:25:51.824Z,1007.06
2019-01-16T08:26:51.920Z,1007.03
2019-01-16T08:27:51.875Z,1007.02
2019-01-16T08:28:51.769Z,1006.98
2019-01-16T08:29:51.840Z,1007.01
2019-01-16T08:30:51.758Z,1006.99
2019-01-16T08:31:51.743Z,1006.94
2019-01-16T08:32:51.871Z,1006.98
2019-01-16T08:33:51.727Z,1007.00
2019-01-16T08:34:51.708Z,1006.99
2019-01-16T08:35:51.737Z,1007.02
2019-01-16T08:36:51.684Z,1007.05
2019-01-16T08:37:51.729Z,1007.10
2019-01-16T08:38:51.735Z,1007.11
2019-01-16T08:39:51.652Z,1007.16
2019-01-16T08:40:51.657Z,1007.15
2019-01-16T08:41:51.645Z,1007.16
2019-01-16T08:42:51.683Z,1007.11
2019-01-16T08:43:51.671Z,1007.16
2019-01-16T08:44:51.600Z,1007.13
2019-01-16T08:45:51.650Z,1007.18
2019-01-16T08:46:51.626Z,1007.14
2019-01-16T08:47:51.615Z,1007.18
2019-01-16T08:48:51.640Z,1007.18
2019-01-16T08:49:51.546Z,1007.17
2019-01-16T08:50:51.537Z,1007.14
2019-01-16T08:51:51.709Z,1007.14
2019-01-16T08:52:51.514Z,1007.16
2019-01-16T08:53:51.534Z,1007.15
2019-01-16T08:54:51.495Z,1007.12
2019-01-16T08:55:51.514Z,1007.11
2019-01-16T08:56:51.473Z,1007.14
2019-01-16T08:57:51.469Z,1007.10
2019-01-16T08:58:51.600Z,1007.15
2019-01-16T08:59:51.444Z,1007.14
2019-01-16T09:00:51.516Z,1007.09
2019-01-16T09:01:51.421Z,1007.07
2019-01-16T09:02:51.659Z,1007.06
2019-01-16T09:03:51.435Z,1007.05
2019-01-16T09:04:51.414Z,1007.03
2019-01-16T09:05:51.384Z,1007.07
2019-01-16T09:06:51.428Z,1007.01
2019-01-16T09:07:51.427Z,1006.98
2019-01-16T09:08:51.356Z,1006.94
2019-01-16T09:09:51.369Z,1006.98
2019-01-16T09:10:51.351Z,1006.98
2019-01-16T09:11:51.331Z,1006.96
2019-01-16T09:12:51.316Z,1006.95
2019-01-16T09:13:51.291Z,1006.85
2019-01-16T09:14:51.331Z,1006.79
2019-01-16T09:15:51.344Z,1006.84
2019-01-16T09:16:51.272Z,1006.84
2019-01-16T09:17:51.248Z,1006.83
2019-01-16T09:18:51.258Z,1006.88
2019-01-16T09:19:51.268Z,1006.84
2019-01-16T09:20:51.217Z,1006.85
2019-01-16T09:21:51.280Z,1006.87
2019-01-16T09:22:51.194Z,1006.84
2019-01-16T09:23:51.261Z,1006.84
2019-01-16T09:24:51.188Z,1006.83
2019-01-16T09:25:51.313Z,1006.87
2019-01-16T09:26:51.149Z,1006.88
2019-01-16T09:27:51.148Z,1006.88
2019-01-16T09:28:51.131Z,1006.82
2019-01-16T09:29:51.169Z,1006.79
2019-01-16T09:30:51.143Z,1006.83
2019-01-16T09:31:51.096Z,1006.88
2019-01-16T09:32:51.152Z,1006.91
2019-01-16T09:33:51.091Z,1006.91
2019-01-16T09:34:51.123Z,1006.89
2019-01-16T09:35:51.102Z,1006.89
2019-01-16T09:36:51.044Z,1006.94
2019-01-16T09:37:51.105Z,1006.87
2019-01-16T09:38:51.107Z,1006.91
2019-01-16T09:39:51.015Z,1006.98
2019-01-16T09:40:51.065Z,1006.92
2019-01-16T09:41:51.044Z,1006.95
2019-01-16T09:42:51.053Z,1006.96
2019-01-16T09:43:51.014Z,1006.94
2019-01-16T09:44:50.957Z,1006.94
2019-01-16T09:45:50.956Z,1006.87
2019-01-16T09:46:51.064Z,1006.81
2019-01-16T09:47:50.924Z,1006.82
2019-01-16T09:48:50.928Z,1006.85
2019-01-16T09:49:50.924Z,1006.87
2019-01-16T09:50:51.082Z,1006.86
2019-01-16T09:51:50.937Z,1006.92
2019-01-16T09:52:50.885Z,1006.93
2019-01-16T09:53:51.027Z,1006.84
2019-01-16T09:54:50.857Z,1006.85
2019-01-16T09:55:50.847Z,1006.78
2019-01-16T09:56:50.892Z,1006.87
2019-01-16T09:57:50.830Z,1006.75
2019-01-16T09:58:50.889Z,1006.69
2019-01-16T09:59:50.821Z,1006.68
2019-01-16T10:00:50.800Z,1006.66
2019-01-16T10:01:50.894Z,1006.63
2019-01-16T10:02:50.797Z,1006.61
2019-01-16T10:03:50.773Z,1006.61
2019-01-16T10:04:50.753Z,1006.60
2019-01-16T10:05:50.809Z,1006.57
2019-01-16T10:06:50.772Z,1006.56
2019-01-16T10:07:50.726Z,1006.57
2019-01-16T10:08:50.711Z,1006.58
2019-01-16T10:09:50.697Z,1006.54
2019-01-16T10:10:50.767Z,1006.52
2019-01-16T10:11:50.764Z,1006.54
2019-01-16T10:12:50.693Z,1006.56
2019-01-16T10:13:50.667Z,1006.46
2019-01-16T10:14:50.652Z,1006.48
2019-01-16T10:15:50.668Z,1006.48
2019-01-16T10:16:50.626Z,1006.46
2019-01-16T10:17:50.642Z,1006.46
2019-01-16T10:18:50.604Z,1006.41
2019-01-16T10:19:50.814Z,1006.42
2019-01-16T10:20:55.570Z,1006.42
2019-01-16T10:21:51.568Z,1006.42
2019-01-16T10:22:50.676Z,1006.37
2019-01-16T10:23:50.547Z,1006.38
2019-01-16T10:24:50.621Z,1006.35
2019-01-16T10:25:50.538Z,1006.33
2019-01-16T10:26:50.529Z,1006.34
2019-01-16T10:27:50.635Z,1006.26
2019-01-16T10:28:50.580Z,1006.25
2019-01-16T10:29:50.504Z,1006.18
2019-01-16T10:30:50.478Z,1006.15
2019-01-16T10:31:50.469Z,1006.07
2019-01-16T10:32:50.452Z,1006.06
2019-01-16T10:33:50.620Z,1006.03
2019-01-16T10:34:50.428Z,1006.02
2019-01-16T10:35:50.510Z,1005.97
2019-01-16T10:36:50.409Z,1005.90
2019-01-16T10:37:50.404Z,1005.92
2019-01-16T10:38:50.433Z,1005.87
2019-01-16T10:39:50.556Z,1005.82
2019-01-16T10:40:50.367Z,1005.78
2019-01-16T10:41:50.351Z,1005.74
2019-01-16T10:42:50.529Z,1005.73
2019-01-16T10:43:50.433Z,1005.75
2019-01-16T10:44:50.359Z,1005.73
2019-01-16T10:45:50.347Z,1005.74
2019-01-16T10:46:50.308Z,1005.72
2019-01-16T10:47:50.362Z,1005.71
2019-01-16T10:48:50.353Z,1005.70
2019-01-16T10:49:50.355Z,1005.67
2019-01-16T10:50:50.263Z,1005.66
2019-01-16T10:51:50.252Z,1005.64
2019-01-16T10:52:50.406Z,1005.62
2019-01-16T10:53:50.226Z,1005.56
2019-01-16T10:54:50.299Z,1005.51
2019-01-16T10:55:50.202Z,1005.53
2019-01-16T10:56:50.201Z,1005.51
2019-01-16T10:57:50.185Z,1005.51
2019-01-16T10:58:50.242Z,1005.43
2019-01-16T10:59:50.245Z,1005.52
2019-01-16T11:00:50.230Z,1005.48
2019-01-16T11:01:50.279Z,1005.49
2019-01-16T11:02:50.264Z,1005.47
2019-01-16T11:03:50.127Z,1005.47
2019-01-16T11:04:50.111Z,1005.45
2019-01-16T11:05:50.153Z,1005.47
2019-01-16T11:06:50.102Z,1005.46
2019-01-16T11:07:50.188Z,1005.41
2019-01-16T11:08:50.105Z,1005.41
2019-01-16T11:09:50.053Z,1005.42
2019-01-16T11:10:50.072Z,1005.42
2019-01-16T11:11:50.039Z,1005.40
2019-01-16T11:12:50.263Z,1005.39
2019-01-16T11:13:50.009Z,1005.39
2019-01-16T11:14:50.011Z,1005.34
2019-01-16T11:15:50.127Z,1005.33
2019-01-16T11:16:56.643Z,1005.31
2019-01-16T11:17:51.039Z,1005.30
2019-01-16T11:18:50.020Z,1005.30
2019-01-16T11:19:49.953Z,1005.25
2019-01-16T11:20:49.980Z,1005.19
2019-01-16T11:21:49.923Z,1005.16
2019-01-16T11:22:50.079Z,1005.17
2019-01-16T11:23:49.918Z,1005.20
2019-01-16T11:24:49.900Z,1005.18
2019-01-16T11:25:49.927Z,1005.13
2019-01-16T11:26:49.923Z,1005.14
2019-01-16T11:27:49.984Z,1005.11
2019-01-16T11:28:49.851Z,1005.09
2019-01-16T11:29:49.884Z,1005.08
2019-01-16T11:30:49.849Z,1005.07
2019-01-16T11:31:49.907Z,1005.05
2019-01-16T11:32:49.830Z,1005.00
2019-01-16T11:33:49.796Z,1004.96
2019-01-16T11:34:49.785Z,1004.95
2019-01-16T11:35:49.862Z,1004.98
2019-01-16T11:36:49.827Z,1004.93
2019-01-16T11:37:49.845Z,1004.90
2019-01-16T11:38:49.744Z,1004.94
2019-01-16T11:39:49.874Z,1004.85
2019-01-16T11:40:50.833Z,1004.84
2019-01-16T11:41:49.762Z,1004.78
2019-01-16T11:42:49.706Z,1004.73
2019-01-16T11:43:49.831Z,1004.69
2019-01-16T11:44:49.689Z,1004.72
2019-01-16T11:45:49.675Z,1004.71
2019-01-16T11:46:49.686Z,1004.75
2019-01-16T11:47:49.644Z,1004.70
2019-01-16T11:48:49.736Z,1004.70
2019-01-16T11:49:49.626Z,1004.71
2019-01-16T11:50:49.622Z,1004.67
2019-01-16T11:51:49.661Z,1004.69
2019-01-16T11:52:49.593Z,1004.57
2019-01-16T11:53:49.600Z,1004.57
2019-01-16T11:54:49.608Z,1004.55
2019-01-16T11:55:49.565Z,1004.44
2019-01-16T11:56:49.556Z,1004.41
2019-01-16T11:57:49.730Z,1004.36
2019-01-16T11:58:49.699Z,1004.41
2019-01-16T11:59:49.598Z,1004.41
2019-01-16T12:00:49.877Z,1004.44
2019-01-16T12:01:49.603Z,1004.40
2019-01-16T12:02:49.507Z,1004.42
2019-01-16T12:03:49.530Z,1004.44
2019-01-16T12:04:49.463Z,1004.38
2019-01-16T12:05:49.462Z,1004.30